Time;durP1;ratioP1;P1;durP2;ratioP2;P2;SDS_P1;SDS_P2;PMS_P1;PMS_P2;Temp;Humidity;BMP_temperature;BMP_pressure;BME280_temperature;BME280_humidity;BME280_pressure;Samples;Min_cycle;Max_cycle;Signal;HPM_P1;HPM_P2
2023/12/31 00:01:11;;;;;;;12.27;4.97;;;;;;;;;;5134972;27;20019;-67
2023/12/31 00:03:37;;;;;;;13.23;4.15;;;;;;;;;;5134714;27;20015;-66
2023/12/31 00:06:03;;;;;;;12.07;3.92;;;;;;;;;;5134845;27;20038;-67
2023/12/31 00:08:28;;;;;;;12.00;4.30;;;;;;;;;;5134693;27;20023;-67
2023/12/31 00:10:53;;;;;;;11.90;5.07;;;;;;;;;;5134727;27;20050;-66
2023/12/31 00:13:19;;;;;;;6.85;3.90;;;;;;;;;;5134426;27;20015;-67
2023/12/31 00:15:44;;;;;;;7.65;4.07;;;;;;;;;;5134523;27;20049;-68
2023/12/31 00:18:10;;;;;;;11.20;4.50;;;;;;;;;;5115841;27;20470;-67
2023/12/31 00:20:35;;;;;;;12.82;4.97;;;;;;;;;;5134444;27;20019;-67
2023/12/31 00:23:01;;;;;;;11.13;4.90;;;;;;;;;;5134423;27;20023;-66
2023/12/31 00:25:26;;;;;;;13.18;4.45;;;;;;;;;;5134206;27;20072;-66
2023/12/31 00:27:52;;;;;;;8.75;3.60;;;;;;;;;;5134019;27;20451;-67
2023/12/31 00:30:17;;;;;;;9.73;3.72;;;;;;;;;;5134253;27;20454;-67
2023/12/31 00:32:43;;;;;;;9.82;3.90;;;;;;;;;;5133850;27;20027;-66
2023/12/31 00:35:08;;;;;;;9.95;3.60;;;;;;;;;;5133620;27;20026;-67
2023/12/31 00:37:33;;;;;;;6.57;3.05;;;;;;;;;;5133839;27;20097;-67
2023/12/31 00:39:59;;;;;;;7.78;3.63;;;;;;;;;;5131990;27;20016;-67
2023/12/31 00:42:24;;;;;;;9.05;3.53;;;;;;;;;;5133796;27;20034;-68
2023/12/31 00:44:50;;;;;;;9.35;4.53;;;;;;;;;;5133590;27;20500;-67
2023/12/31 00:47:15;;;;;;;10.73;4.85;;;;;;;;;;5134135;27;20031;-67
2023/12/31 00:49:40;;;;;;;12.73;4.63;;;;;;;;;;5131360;27;20035;-67
2023/12/31 00:52:06;;;;;;;12.93;4.75;;;;;;;;;;5131147;27;20015;-66
2023/12/31 00:54:32;;;;;;;9.60;4.28;;;;;;;;;;5133741;27;20074;-66
2023/12/31 00:56:58;;;;;;;13.95;4.78;;;;;;;;;;5133846;27;20099;-66
2023/12/31 00:59:23;;;;;;;8.25;3.72;;;;;;;;;;5133799;27;20389;-66
2023/12/31 01:01:50;;;;;;;10.35;5.15;;;;;;;;;;5133728;27;20019;-66
2023/12/31 01:04:16;;;;;;;10.93;5.20;;;;;;;;;;5133791;27;20362;-66
2023/12/31 01:06:42;;;;;;;10.98;5.25;;;;;;;;;;5133654;27;20050;-66
2023/12/31 01:09:07;;;;;;;8.65;4.03;;;;;;;;;;5133580;27;20457;-66
2023/12/31 01:11:34;;;;;;;13.85;5.13;;;;;;;;;;5133318;27;20091;-66
2023/12/31 01:14:00;;;;;;;15.38;4.57;;;;;;;;;;5133630;27;20098;-66
2023/12/31 01:16:25;;;;;;;9.98;4.32;;;;;;;;;;5133560;27;20110;-66
2023/12/31 01:18:51;;;;;;;11.00;4.22;;;;;;;;;;5133429;27;20030;-67
2023/12/31 01:21:18;;;;;;;11.05;5.05;;;;;;;;;;5133598;27;20060;-66
2023/12/31 01:23:43;;;;;;;10.07;5.20;;;;;;;;;;5133254;27;20030;-66
2023/12/31 01:26:08;;;;;;;13.43;5.53;;;;;;;;;;5135373;27;20031;-66
2023/12/31 01:28:34;;;;;;;12.52;4.57;;;;;;;;;;5133226;27;20465;-68
2023/12/31 01:30:59;;;;;;;11.68;5.70;;;;;;;;;;5132980;27;20046;-67
2023/12/31 01:33:25;;;;;;;8.23;4.57;;;;;;;;;;5133485;27;20027;-67
2023/12/31 01:35:50;;;;;;;8.90;4.72;;;;;;;;;;5134282;27;20023;-68
2023/12/31 01:38:16;;;;;;;10.55;5.47;;;;;;;;;;5133154;27;20123;-67
2023/12/31 01:40:52;;;;;;;12.52;4.63;;;;;;;;;;5133095;27;20026;-67
2023/12/31 01:43:19;;;;;;;9.05;4.60;;;;;;;;;;5131169;27;20022;-66
2023/12/31 01:45:44;;;;;;;11.02;4.75;;;;;;;;;;5132528;27;20031;-67
2023/12/31 01:48:10;;;;;;;9.15;4.70;;;;;;;;;;5132966;27;20026;-67
2023/12/31 01:50:36;;;;;;;8.13;4.05;;;;;;;;;;5133272;28;20465;-66
2023/12/31 01:53:02;;;;;;;10.02;3.83;;;;;;;;;;5132954;28;20039;-68
2023/12/31 01:55:28;;;;;;;12.75;4.07;;;;;;;;;;5132888;28;20060;-67
2023/12/31 01:57:53;;;;;;;6.10;3.20;;;;;;;;;;5133041;28;20113;-67
2023/12/31 02:00:19;;;;;;;13.18;5.18;;;;;;;;;;5133091;28;20072;-68
2023/12/31 02:02:47;;;;;;;12.98;4.35;;;;;;;;;;5132917;28;20027;-67
2023/12/31 02:05:12;;;;;;;13.85;4.78;;;;;;;;;;5130213;28;20023;-68
2023/12/31 02:07:38;;;;;;;8.35;4.32;;;;;;;;;;5133131;28;20027;-67
2023/12/31 02:10:04;;;;;;;9.60;4.13;;;;;;;;;;5132778;28;20023;-67
2023/12/31 02:12:30;;;;;;;8.20;3.83;;;;;;;;;;5133047;28;20023;-66
2023/12/31 02:14:55;;;;;;;16.35;3.92;;;;;;;;;;5133047;28;20426;-67
2023/12/31 02:17:21;;;;;;;13.00;4.93;;;;;;;;;;5132879;28;20019;-67
2023/12/31 02:19:46;;;;;;;10.82;4.25;;;;;;;;;;5132759;28;20629;-67
2023/12/31 02:22:12;;;;;;;11.85;5.07;;;;;;;;;;5132903;28;20138;-66
2023/12/31 02:24:48;;;;;;;9.70;4.45;;;;;;;;;;5132671;28;20418;-67
2023/12/31 02:27:14;;;;;;;12.50;4.80;;;;;;;;;;5130274;28;20027;-68
2023/12/31 02:29:40;;;;;;;10.88;4.40;;;;;;;;;;5132821;28;20398;-67
2023/12/31 02:32:05;;;;;;;12.20;4.50;;;;;;;;;;5133243;28;20016;-66
2023/12/31 02:34:31;;;;;;;9.15;4.07;;;;;;;;;;5133235;28;20050;-68
2023/12/31 02:36:57;;;;;;;11.80;5.07;;;;;;;;;;5133148;28;20106;-67
2023/12/31 02:39:24;;;;;;;9.57;4.30;;;;;;;;;;5133000;28;20033;-66
2023/12/31 02:41:50;;;;;;;10.60;4.95;;;;;;;;;;5132893;28;20444;-67
2023/12/31 02:44:16;;;;;;;14.80;4.38;;;;;;;;;;5114540;28;20118;-67
2023/12/31 02:46:41;;;;;;;14.88;4.80;;;;;;;;;;5132960;28;20067;-67
2023/12/31 02:49:08;;;;;;;8.00;4.22;;;;;;;;;;5132967;28;20018;-66
2023/12/31 02:51:34;;;;;;;9.90;4.78;;;;;;;;;;5132878;28;20453;-68
2023/12/31 02:54:00;;;;;;;7.80;3.35;;;;;;;;;;5132647;28;20413;-67
2023/12/31 02:56:25;;;;;;;11.05;5.18;;;;;;;;;;5133272;27;20027;-67
2023/12/31 02:58:51;;;;;;;5.38;3.33;;;;;;;;;;5136653;27;20035;-67
2023/12/31 03:01:16;;;;;;;6.43;2.15;;;;;;;;;;5136787;27;20044;-67
2023/12/31 03:03:42;;;;;;;7.93;3.58;;;;;;;;;;5136658;27;20023;-67
2023/12/31 03:06:07;;;;;;;9.98;5.05;;;;;;;;;;5136513;27;20426;-66
2023/12/31 03:08:33;;;;;;;4.13;2.88;;;;;;;;;;5136288;27;20378;-67
2023/12/31 03:10:58;;;;;;;7.88;4.20;;;;;;;;;;5136563;27;20023;-67
2023/12/31 03:13:23;;;;;;;13.43;4.68;;;;;;;;;;5136434;27;20031;-67
2023/12/31 03:15:49;;;;;;;9.50;4.53;;;;;;;;;;5136277;27;20488;-67
2023/12/31 03:18:14;;;;;;;12.45;4.55;;;;;;;;;;5136243;27;20027;-68
2023/12/31 03:20:39;;;;;;;10.18;4.70;;;;;;;;;;5136375;27;20023;-67
2023/12/31 03:23:05;;;;;;;13.40;4.75;;;;;;;;;;5136008;27;20393;-68
2023/12/31 03:25:30;;;;;;;12.90;4.78;;;;;;;;;;5151888;27;20469;-67
2023/12/31 03:27:56;;;;;;;10.10;4.25;;;;;;;;;;5156978;27;20076;-67
2023/12/31 03:30:21;;;;;;;9.38;5.07;;;;;;;;;;5156822;27;20035;-67
2023/12/31 03:32:47;;;;;;;14.25;4.80;;;;;;;;;;5156823;27;20030;-67
2023/12/31 03:35:12;;;;;;;10.88;4.43;;;;;;;;;;5156853;27;20373;-66
2023/12/31 03:37:37;;;;;;;9.68;4.75;;;;;;;;;;5156486;27;20066;-67
2023/12/31 03:40:03;;;;;;;10.93;5.03;;;;;;;;;;5156778;27;20027;-67
2023/12/31 03:42:30;;;;;;;15.30;5.95;;;;;;;;;;5156063;27;20442;-67
2023/12/31 03:44:55;;;;;;;9.77;4.50;;;;;;;;;;5135660;27;20081;-67
2023/12/31 03:47:21;;;;;;;6.70;4.25;;;;;;;;;;5135635;27;20019;-67
2023/12/31 03:49:46;;;;;;;10.30;4.28;;;;;;;;;;5135680;27;20159;-68
2023/12/31 03:52:12;;;;;;;9.00;4.95;;;;;;;;;;5135446;27;20409;-67
2023/12/31 03:54:41;;;;;;;14.20;4.70;;;;;;;;;;5135535;27;20499;-66
2023/12/31 03:57:06;;;;;;;11.00;4.40;;;;;;;;;;5135473;27;20031;-67
2023/12/31 03:59:32;;;;;;;7.55;4.38;;;;;;;;;;5135557;27;20038;-67
2023/12/31 04:01:58;;;;;;;8.98;4.03;;;;;;;;;;5135544;27;20034;-67
2023/12/31 04:04:25;;;;;;;7.50;3.67;;;;;;;;;;5135325;27;20054;-67
2023/12/31 04:06:51;;;;;;;7.03;3.10;;;;;;;;;;5135461;27;20023;-67
2023/12/31 04:09:16;;;;;;;12.98;4.38;;;;;;;;;;5135081;27;20031;-67
2023/12/31 04:11:42;;;;;;;9.10;4.07;;;;;;;;;;5135286;27;20031;-68
2023/12/31 04:14:07;;;;;;;11.65;4.70;;;;;;;;;;5135274;27;20076;-67
2023/12/31 04:16:33;;;;;;;7.28;4.20;;;;;;;;;;5135173;27;20030;-66
2023/12/31 04:18:58;;;;;;;9.85;4.43;;;;;;;;;;5134814;27;20023;-67
2023/12/31 04:21:24;;;;;;;7.15;4.18;;;;;;;;;;5135183;27;20038;-67
2023/12/31 04:23:49;;;;;;;7.40;4.45;;;;;;;;;;5135870;27;20088;-66
2023/12/31 04:26:14;;;;;;;9.02;4.40;;;;;;;;;;5155486;27;20015;-67
2023/12/31 04:28:40;;;;;;;6.72;4.15;;;;;;;;;;5155853;27;20053;-67
2023/12/31 04:31:06;;;;;;;12.15;4.82;;;;;;;;;;5155676;27;20027;-67
2023/12/31 04:33:32;;;;;;;15.27;5.60;;;;;;;;;;5155459;27;20083;-67
2023/12/31 04:35:57;;;;;;;10.52;4.97;;;;;;;;;;5155587;27;20034;-67
2023/12/31 04:38:23;;;;;;;8.93;4.57;;;;;;;;;;5155298;27;20103;-67
2023/12/31 04:40:49;;;;;;;10.93;4.65;;;;;;;;;;5155536;27;20026;-67
2023/12/31 04:43:14;;;;;;;9.63;4.43;;;;;;;;;;5155330;27;20426;-67
2023/12/31 04:45:39;;;;;;;9.20;4.30;;;;;;;;;;5140551;27;20163;-67
2023/12/31 04:48:05;;;;;;;8.65;3.97;;;;;;;;;;5134170;27;20031;-67
2023/12/31 04:50:30;;;;;;;11.02;4.35;;;;;;;;;;5134579;27;20026;-68
2023/12/31 04:52:56;;;;;;;10.20;4.10;;;;;;;;;;5134150;27;20023;-67
2023/12/31 04:55:22;;;;;;;7.38;4.25;;;;;;;;;;5134579;27;20023;-67
2023/12/31 04:57:49;;;;;;;5.30;2.70;;;;;;;;;;5134284;27;20077;-68
2023/12/31 05:00:15;;;;;;;3.72;2.72;;;;;;;;;;5134274;27;20035;-67
2023/12/31 05:02:40;;;;;;;9.65;4.03;;;;;;;;;;5134157;27;20016;-67
2023/12/31 05:05:06;;;;;;;11.32;4.70;;;;;;;;;;5134345;27;20027;-67
2023/12/31 05:07:32;;;;;;;9.15;4.03;;;;;;;;;;5134275;27;20461;-68
2023/12/31 05:09:57;;;;;;;13.50;4.07;;;;;;;;;;5134153;27;20110;-68
2023/12/31 05:12:23;;;;;;;10.43;5.15;;;;;;;;;;5134238;27;20027;-66
2023/12/31 05:14:48;;;;;;;8.48;4.03;;;;;;;;;;5134092;27;20030;-66
2023/12/31 05:17:14;;;;;;;12.02;6.20;;;;;;;;;;5133752;27;20522;-67
2023/12/31 05:19:39;;;;;;;13.15;5.90;;;;;;;;;;5133520;27;20027;-67
2023/12/31 05:22:04;;;;;;;13.55;5.32;;;;;;;;;;5133992;27;20019;-67
2023/12/31 05:24:30;;;;;;;12.93;5.50;;;;;;;;;;5141031;27;20083;-67
2023/12/31 05:26:55;;;;;;;10.50;4.82;;;;;;;;;;5154521;27;20521;-67
2023/12/31 05:29:21;;;;;;;12.75;5.25;;;;;;;;;;5154656;27;20105;-68
2023/12/31 05:31:46;;;;;;;12.05;4.90;;;;;;;;;;5154352;27;20050;-66
2023/12/31 05:34:11;;;;;;;10.40;5.13;;;;;;;;;;5154461;27;20098;-67
2023/12/31 05:36:37;;;;;;;11.57;4.15;;;;;;;;;;5154493;27;20483;-68
2023/12/31 05:39:02;;;;;;;10.60;5.03;;;;;;;;;;5154304;27;20027;-68
2023/12/31 05:41:28;;;;;;;16.38;5.18;;;;;;;;;;5154387;27;20015;-68
2023/12/31 05:43:53;;;;;;;9.80;4.30;;;;;;;;;;5154435;27;20026;-69
2023/12/31 05:46:20;;;;;;;11.23;4.82;;;;;;;;;;5133697;27;20046;-68
2023/12/31 05:48:45;;;;;;;12.57;4.95;;;;;;;;;;5133485;27;20031;-68
2023/12/31 05:51:11;;;;;;;5.32;2.72;;;;;;;;;;5133402;28;20034;-68
2023/12/31 05:53:36;;;;;;;11.20;5.53;;;;;;;;;;5133286;28;20043;-66
2023/12/31 05:56:02;;;;;;;10.13;4.95;;;;;;;;;;5133524;28;20063;-67
2023/12/31 05:58:28;;;;;;;16.27;4.65;;;;;;;;;;5133492;28;20102;-67
2023/12/31 06:00:53;;;;;;;12.77;5.97;;;;;;;;;;5133274;28;20019;-66
2023/12/31 06:03:18;;;;;;;12.38;6.00;;;;;;;;;;5133414;28;20084;-67
2023/12/31 06:05:44;;;;;;;17.65;6.32;;;;;;;;;;5133374;28;20033;-68
2023/12/31 06:08:09;;;;;;;13.68;7.05;;;;;;;;;;5133294;28;20023;-67
2023/12/31 06:10:35;;;;;;;13.35;6.32;;;;;;;;;;5133416;28;20049;-66
2023/12/31 06:13:01;;;;;;;16.00;6.32;;;;;;;;;;5133452;28;20023;-67
2023/12/31 06:15:27;;;;;;;14.05;6.10;;;;;;;;;;5133035;28;20530;-66
2023/12/31 06:17:53;;;;;;;14.60;6.07;;;;;;;;;;5133055;28;20114;-67
2023/12/31 06:20:19;;;;;;;13.02;6.43;;;;;;;;;;5133450;28;20527;-67
2023/12/31 06:22:44;;;;;;;12.35;6.40;;;;;;;;;;5133423;28;20031;-67
2023/12/31 06:25:10;;;;;;;14.13;6.78;;;;;;;;;;5145874;27;20602;-67
2023/12/31 06:27:39;;;;;;;18.83;6.78;;;;;;;;;;5154008;27;20031;-67
2023/12/31 06:30:05;;;;;;;9.70;5.10;;;;;;;;;;5153793;27;20034;-67
2023/12/31 06:32:31;;;;;;;7.30;4.32;;;;;;;;;;5156307;27;20099;-66
2023/12/31 06:34:56;;;;;;;10.02;5.60;;;;;;;;;;5158044;27;20046;-67
2023/12/31 06:37:21;;;;;;;17.33;7.18;;;;;;;;;;5157735;27;20035;-67
2023/12/31 06:39:47;;;;;;;12.80;5.43;;;;;;;;;;5157458;27;20027;-67
2023/12/31 06:42:13;;;;;;;9.73;5.35;;;;;;;;;;5157826;27;20018;-67
2023/12/31 06:44:38;;;;;;;13.43;5.97;;;;;;;;;;5151642;27;20031;-67
2023/12/31 06:47:04;;;;;;;13.20;6.13;;;;;;;;;;5136748;27;20432;-67
2023/12/31 06:49:29;;;;;;;13.88;6.88;;;;;;;;;;5136804;27;20042;-67
2023/12/31 06:51:55;;;;;;;18.02;7.40;;;;;;;;;;5136834;27;20462;-67
2023/12/31 06:54:20;;;;;;;13.52;6.97;;;;;;;;;;5136591;27;20100;-66
2023/12/31 06:56:45;;;;;;;15.57;7.13;;;;;;;;;;5136770;27;20072;-67
2023/12/31 06:59:11;;;;;;;13.15;7.13;;;;;;;;;;5136415;27;20050;-67
2023/12/31 07:01:36;;;;;;;17.90;7.45;;;;;;;;;;5136729;27;20043;-67
2023/12/31 07:04:02;;;;;;;19.65;7.82;;;;;;;;;;5136737;27;20023;-67
2023/12/31 07:06:27;;;;;;;13.27;6.47;;;;;;;;;;5118080;27;20100;-67
2023/12/31 07:08:52;;;;;;;17.00;7.82;;;;;;;;;;5136550;27;20097;-66
2023/12/31 07:11:18;;;;;;;16.10;7.75;;;;;;;;;;5136576;27;20103;-67
2023/12/31 07:13:44;;;;;;;14.93;7.45;;;;;;;;;;5136306;27;20112;-67
2023/12/31 07:16:10;;;;;;;19.63;8.63;;;;;;;;;;5136389;27;20080;-67
2023/12/31 07:18:36;;;;;;;20.77;8.48;;;;;;;;;;5136177;27;20027;-67
2023/12/31 07:21:02;;;;;;;19.90;7.80;;;;;;;;;;5136398;27;20019;-66
2023/12/31 07:23:27;;;;;;;19.00;8.10;;;;;;;;;;5136320;27;20432;-67
2023/12/31 07:25:53;;;;;;;18.65;8.68;;;;;;;;;;5154973;27;20023;-67
2023/12/31 07:28:19;;;;;;;20.35;8.10;;;;;;;;;;5156595;27;20102;-67
2023/12/31 07:30:44;;;;;;;16.67;7.50;;;;;;;;;;5156886;27;20018;-66
2023/12/31 07:33:10;;;;;;;16.00;6.95;;;;;;;;;;5156784;27;20027;-67
2023/12/31 07:35:36;;;;;;;13.23;6.75;;;;;;;;;;5156744;27;20022;-67
2023/12/31 07:38:07;;;;;;;15.07;6.20;;;;;;;;;;5156679;27;20518;-67
2023/12/31 07:40:33;;;;;;;16.45;6.47;;;;;;;;;;5156664;27;20438;-67
2023/12/31 07:42:58;;;;;;;17.42;6.47;;;;;;;;;;5155848;27;20019;-66
2023/12/31 07:45:23;;;;;;;13.35;6.00;;;;;;;;;;5144255;27;20112;-67
2023/12/31 07:47:49;;;;;;;14.38;5.85;;;;;;;;;;5116676;27;20497;-68
2023/12/31 07:50:14;;;;;;;12.65;5.75;;;;;;;;;;5135739;27;20027;-67
2023/12/31 07:52:40;;;;;;;12.93;6.88;;;;;;;;;;5135722;27;20024;-67
2023/12/31 07:55:08;;;;;;;16.63;7.18;;;;;;;;;;5135354;27;20059;-67
2023/12/31 07:57:34;;;;;;;17.00;6.25;;;;;;;;;;5135126;27;20027;-67
2023/12/31 08:00:00;;;;;;;18.33;7.20;;;;;;;;;;5117096;27;20023;-67
2023/12/31 08:02:25;;;;;;;20.38;6.72;;;;;;;;;;5135432;27;20031;-67
2023/12/31 08:04:50;;;;;;;28.60;11.55;;;;;;;;;;5135458;27;20048;-67
2023/12/31 08:07:16;;;;;;;16.38;9.02;;;;;;;;;;5135028;27;20046;-67
2023/12/31 08:09:42;;;;;;;26.35;11.60;;;;;;;;;;5135276;27;20478;-67
2023/12/31 08:12:07;;;;;;;27.30;13.70;;;;;;;;;;5135219;27;20034;-69
2023/12/31 08:14:33;;;;;;;38.45;20.17;;;;;;;;;;5135304;27;20028;-67
2023/12/31 08:16:58;;;;;;;50.28;24.58;;;;;;;;;;5134996;27;20527;-66
2023/12/31 08:19:23;;;;;;;54.03;28.52;;;;;;;;;;5134715;27;20032;-67
2023/12/31 08:21:49;;;;;;;51.80;24.38;;;;;;;;;;5135047;27;20037;-66
2023/12/31 08:24:19;;;;;;;32.47;15.23;;;;;;;;;;5139710;27;20026;-67
2023/12/31 08:26:44;;;;;;;25.60;10.05;;;;;;;;;;5155562;27;20038;-66
2023/12/31 08:29:10;;;;;;;24.65;10.73;;;;;;;;;;5155729;27;20048;-66
2023/12/31 08:31:35;;;;;;;21.95;8.35;;;;;;;;;;5155722;27;20027;-66
2023/12/31 08:34:01;;;;;;;17.95;8.10;;;;;;;;;;5155675;27;20033;-67
2023/12/31 08:36:26;;;;;;;27.08;11.48;;;;;;;;;;5155506;27;20034;-67
2023/12/31 08:38:51;;;;;;;11.23;5.05;;;;;;;;;;5155055;27;20026;-66
2023/12/31 08:41:17;;;;;;;30.05;13.73;;;;;;;;;;5155290;27;20021;-66
2023/12/31 08:43:43;;;;;;;30.65;14.45;;;;;;;;;;5155349;27;20331;-66
2023/12/31 08:46:10;;;;;;;33.53;16.00;;;;;;;;;;5136281;27;20019;-66
2023/12/31 08:48:36;;;;;;;30.77;11.77;;;;;;;;;;5134367;27;20027;-66
2023/12/31 08:51:02;;;;;;;27.98;13.57;;;;;;;;;;5116063;27;20027;-66
2023/12/31 08:53:27;;;;;;;35.97;16.67;;;;;;;;;;5134090;27;20051;-67
2023/12/31 08:55:53;;;;;;;22.27;10.68;;;;;;;;;;5133484;27;20031;-66
2023/12/31 08:58:20;;;;;;;15.52;7.88;;;;;;;;;;5115814;27;20055;-66
2023/12/31 09:00:45;;;;;;;18.67;8.77;;;;;;;;;;5134284;27;20027;-66
2023/12/31 09:03:10;;;;;;;21.08;9.00;;;;;;;;;;5134265;27;20031;-67
2023/12/31 09:05:36;;;;;;;17.92;8.77;;;;;;;;;;5134118;27;20181;-66
2023/12/31 09:08:04;;;;;;;15.93;7.57;;;;;;;;;;5134317;27;20089;-66
2023/12/31 09:10:30;;;;;;;19.83;7.30;;;;;;;;;;5133922;27;20110;-66
2023/12/31 09:12:55;;;;;;;20.40;9.15;;;;;;;;;;5133969;27;20047;-66
2023/12/31 09:15:20;;;;;;;30.75;12.15;;;;;;;;;;5134077;27;20061;-67
2023/12/31 09:17:46;;;;;;;12.57;6.95;;;;;;;;;;5133876;27;20031;-66
2023/12/31 09:20:12;;;;;;;19.65;8.88;;;;;;;;;;5115180;27;20035;-67
2023/12/31 09:22:37;;;;;;;12.05;6.38;;;;;;;;;;5133907;27;20023;-66
2023/12/31 09:25:05;;;;;;;12.45;7.00;;;;;;;;;;5145629;27;20146;-66
2023/12/31 09:27:31;;;;;;;8.77;4.78;;;;;;;;;;5154372;27;20373;-66
2023/12/31 09:29:57;;;;;;;9.35;4.70;;;;;;;;;;5154464;27;20105;-66
2023/12/31 09:32:23;;;;;;;7.70;4.15;;;;;;;;;;5154518;27;20102;-66
2023/12/31 09:34:48;;;;;;;7.53;4.20;;;;;;;;;;5154419;27;20436;-66
2023/12/31 09:37:18;;;;;;;9.73;5.32;;;;;;;;;;5154297;27;20033;-67
2023/12/31 09:39:44;;;;;;;11.60;3.80;;;;;;;;;;5153770;27;20369;-66
2023/12/31 09:42:15;;;;;;;18.00;5.93;;;;;;;;;;5154414;27;20031;-66
2023/12/31 09:44:40;;;;;;;;;;;;;;;;;;5148604;27;20355;-66
2023/12/31 09:47:07;;;;;;;19.38;5.32;;;;;;;;;;5133234;27;20025;-66
2023/12/31 09:49:34;;;;;;;11.23;4.82;;;;;;;;;;5133197;27;20051;-66
2023/12/31 09:52:05;;;;;;;17.40;7.47;;;;;;;;;;5133590;27;20016;-66
2023/12/31 09:54:32;;;;;;;8.20;3.20;;;;;;;;;;5133216;28;20160;-66
2023/12/31 09:56:58;;;;;;;12.18;4.28;;;;;;;;;;5133233;28;20080;-66
2023/12/31 09:59:27;;;;;;;11.10;4.43;;;;;;;;;;5133253;28;20026;-67
2023/12/31 10:01:56;;;;;;;9.27;5.07;;;;;;;;;;5133247;28;20378;-67
2023/12/31 10:04:22;;;;;;;7.18;3.50;;;;;;;;;;5132726;28;20440;-66
2023/12/31 10:06:50;;;;;;;4.55;2.72;;;;;;;;;;5136103;27;20023;-65
2023/12/31 10:09:19;;;;;;;9.65;4.80;;;;;;;;;;5137662;27;20033;-66
2023/12/31 10:11:45;;;;;;;12.75;5.47;;;;;;;;;;5137446;27;20027;-66
2023/12/31 10:14:12;;;;;;;12.55;4.68;;;;;;;;;;5137577;27;20376;-65
2023/12/31 10:16:43;;;;;;;9.43;4.97;;;;;;;;;;5137299;27;20102;-66
2023/12/31 10:19:09;;;;;;;10.40;4.97;;;;;;;;;;5137280;27;20027;-66
2023/12/31 10:21:34;;;;;;;13.20;6.25;;;;;;;;;;5136935;27;20023;-66
2023/12/31 10:24:00;;;;;;;13.23;6.15;;;;;;;;;;5118462;27;20073;-66
2023/12/31 10:26:27;;;;;;;11.13;6.00;;;;;;;;;;5137321;27;20110;-66
2023/12/31 10:28:52;;;;;;;13.50;5.80;;;;;;;;;;5137073;27;20131;-66
2023/12/31 10:31:17;;;;;;;10.45;5.65;;;;;;;;;;5118626;27;20031;-66
2023/12/31 10:33:44;;;;;;;15.40;7.15;;;;;;;;;;5137269;27;20027;-66
2023/12/31 10:36:09;;;;;;;20.50;7.78;;;;;;;;;;5136939;27;20110;-66
2023/12/31 10:38:45;;;;;;;12.82;6.15;;;;;;;;;;5136929;27;20304;-67
2023/12/31 10:41:17;;;;;;;6.85;3.70;;;;;;;;;;5136933;27;20023;-66
2023/12/31 10:43:46;;;;;;;6.60;4.18;;;;;;;;;;5137039;27;20015;-66
2023/12/31 10:46:14;;;;;;;9.65;4.75;;;;;;;;;;5136744;27;20362;-66
2023/12/31 10:48:47;;;;;;;16.67;7.40;;;;;;;;;;5136892;27;20027;-65
2023/12/31 10:51:17;;;;;;;12.18;5.38;;;;;;;;;;5118768;27;20110;-66
2023/12/31 10:53:44;;;;;;;10.55;4.95;;;;;;;;;;5128182;27;20039;-66
2023/12/31 10:56:11;;;;;;;8.75;4.68;;;;;;;;;;5123051;27;20027;-66
2023/12/31 10:58:37;;;;;;;9.75;5.40;;;;;;;;;;5136283;27;20043;-67
2023/12/31 11:01:02;;;;;;;7.25;3.70;;;;;;;;;;5136254;27;20102;-65
2023/12/31 11:03:32;;;;;;;7.38;3.35;;;;;;;;;;5136329;27;20586;-67
2023/12/31 11:06:00;;;;;;;9.18;4.22;;;;;;;;;;5135980;27;20032;-66
2023/12/31 11:08:28;;;;;;;6.50;3.03;;;;;;;;;;5136440;27;20398;-66
2023/12/31 11:10:54;;;;;;;13.15;4.22;;;;;;;;;;5136166;27;20019;-67
2023/12/31 11:13:21;;;;;;;11.40;4.50;;;;;;;;;;5116702;27;20386;-67
2023/12/31 11:15:50;;;;;;;5.07;3.28;;;;;;;;;;5115563;28;20027;-66
2023/12/31 11:19:05;;;;;;;8.05;3.80;;;;;;;;;;5114266;28;20354;-66
2023/12/31 11:21:52;;;;;;;8.95;4.40;;;;;;;;;;5041128;28;20063;-66
2023/12/31 11:24:23;;;;;;;9.23;4.32;;;;;;;;;;5057640;28;20479;-67
2023/12/31 11:27:16;;;;;;;7.65;4.18;;;;;;;;;;5052696;28;20059;-66
2023/12/31 11:29:44;;;;;;;9.48;4.72;;;;;;;;;;5052295;28;20025;-67
2023/12/31 11:32:09;;;;;;;11.93;5.55;;;;;;;;;;5052425;28;20040;-66
2023/12/31 11:34:37;;;;;;;5.78;3.58;;;;;;;;;;5051915;28;20380;-66
2023/12/31 11:37:02;;;;;;;12.05;4.13;;;;;;;;;;5052084;28;20086;-66
2023/12/31 11:39:28;;;;;;;12.60;6.75;;;;;;;;;;5052221;28;20507;-66
2023/12/31 11:42:03;;;;;;;8.38;3.45;;;;;;;;;;5051869;28;20529;-66
2023/12/31 11:44:46;;;;;;;8.32;4.15;;;;;;;;;;5047796;28;20029;-66
2023/12/31 11:47:22;;;;;;;7.47;4.15;;;;;;;;;;5049180;28;20029;-66
2023/12/31 11:49:52;;;;;;;11.30;5.25;;;;;;;;;;5051601;28;20068;-66
2023/12/31 11:52:32;;;;;;;8.88;5.32;;;;;;;;;;5084050;27;20168;-67
2023/12/31 11:55:01;;;;;;;10.45;5.68;;;;;;;;;;5134800;27;20106;-67
2023/12/31 11:57:27;;;;;;;12.15;5.40;;;;;;;;;;5134921;27;20035;-67
2023/12/31 11:59:53;;;;;;;11.18;5.22;;;;;;;;;;5135157;27;20034;-66
2023/12/31 12:02:19;;;;;;;6.13;3.33;;;;;;;;;;5135163;27;20061;-67
2023/12/31 12:04:44;;;;;;;8.05;5.13;;;;;;;;;;5135062;27;20062;-67
2023/12/31 12:07:09;;;;;;;7.75;4.30;;;;;;;;;;5135074;27;20046;-67
2023/12/31 12:09:36;;;;;;;14.35;6.38;;;;;;;;;;5135041;27;20027;-68
2023/12/31 12:12:05;;;;;;;8.57;4.93;;;;;;;;;;5135002;27;20027;-69
2023/12/31 12:14:31;;;;;;;8.55;4.85;;;;;;;;;;5135286;27;20039;-69
2023/12/31 12:16:57;;;;;;;11.65;5.78;;;;;;;;;;5134729;27;20106;-67
2023/12/31 12:19:23;;;;;;;14.02;6.05;;;;;;;;;;5134882;27;20023;-67
2023/12/31 12:21:49;;;;;;;6.63;4.07;;;;;;;;;;5134766;27;20023;-67
2023/12/31 12:24:16;;;;;;;11.43;6.20;;;;;;;;;;5134906;27;20070;-67
2023/12/31 12:26:42;;;;;;;13.23;4.65;;;;;;;;;;5134680;27;20039;-67
2023/12/31 12:29:10;;;;;;;7.45;4.40;;;;;;;;;;5134518;27;20023;-67
2023/12/31 12:31:36;;;;;;;9.00;4.70;;;;;;;;;;5134621;27;20035;-67
2023/12/31 12:34:07;;;;;;;6.75;3.67;;;;;;;;;;5134659;27;20027;-69
2023/12/31 12:36:32;;;;;;;;;;;;;;;;;;5135132;27;20024;-69
2023/12/31 12:39:02;;;;;;;11.13;5.43;;;;;;;;;;5134330;27;20012;-69
2023/12/31 12:41:34;;;;;;;6.95;3.42;;;;;;;;;;5134474;27;20056;-69
2023/12/31 12:44:00;;;;;;;12.98;6.00;;;;;;;;;;5134701;27;20051;-69
2023/12/31 12:46:30;;;;;;;9.80;5.85;;;;;;;;;;5133871;27;20031;-69
2023/12/31 12:48:57;;;;;;;11.10;5.00;;;;;;;;;;5115648;27;20023;-69
2023/12/31 12:51:23;;;;;;;6.95;4.38;;;;;;;;;;5134296;27;20477;-69
2023/12/31 12:53:50;;;;;;;12.32;4.53;;;;;;;;;;5133998;27;20134;-69
2023/12/31 12:56:15;;;;;;;12.15;5.20;;;;;;;;;;5134237;27;20042;-69
2023/12/31 12:58:40;;;;;;;7.35;3.80;;;;;;;;;;5134041;27;20046;-69
2023/12/31 13:01:06;;;;;;;9.90;4.47;;;;;;;;;;5133833;27;20031;-68
2023/12/31 13:03:32;;;;;;;4.88;3.22;;;;;;;;;;5134141;27;20023;-69
2023/12/31 13:05:58;;;;;;;5.75;3.00;;;;;;;;;;5133985;27;20114;-69
2023/12/31 13:08:26;;;;;;;7.60;3.72;;;;;;;;;;5134003;27;20029;-67
2023/12/31 13:10:53;;;;;;;9.30;4.07;;;;;;;;;;5133702;27;20110;-69
2023/12/31 13:13:18;;;;;;;8.45;4.13;;;;;;;;;;5133752;27;20023;-67
2023/12/31 13:15:43;;;;;;;8.95;4.15;;;;;;;;;;5133429;27;20474;-66
2023/12/31 13:18:12;;;;;;;7.13;3.42;;;;;;;;;;5133651;27;20047;-67
2023/12/31 13:20:37;;;;;;;7.25;2.97;;;;;;;;;;5133976;27;20334;-66
2023/12/31 13:23:03;;;;;;;10.02;4.53;;;;;;;;;;5133696;27;20030;-67
2023/12/31 13:25:29;;;;;;;9.77;4.22;;;;;;;;;;5133451;27;20067;-66
2023/12/31 13:27:54;;;;;;;7.85;4.07;;;;;;;;;;5133448;27;20103;-66
2023/12/31 13:30:20;;;;;;;9.02;3.90;;;;;;;;;;5133342;27;20039;-67
2023/12/31 13:32:45;;;;;;;12.70;4.57;;;;;;;;;;5133631;27;20019;-67
2023/12/31 13:35:11;;;;;;;10.07;4.68;;;;;;;;;;5133284;27;20034;-67
2023/12/31 13:37:36;;;;;;;9.70;4.75;;;;;;;;;;5133451;27;20062;-66
2023/12/31 13:40:03;;;;;;;7.80;3.80;;;;;;;;;;5133274;27;20056;-66
2023/12/31 13:42:30;;;;;;;10.10;4.90;;;;;;;;;;5133394;27;20023;-67
2023/12/31 13:44:56;;;;;;;10.98;4.60;;;;;;;;;;5133032;27;20027;-68
2023/12/31 13:47:22;;;;;;;9.75;5.50;;;;;;;;;;5133158;27;20071;-66
2023/12/31 13:49:47;;;;;;;7.50;4.45;;;;;;;;;;5133157;27;20555;-66
2023/12/31 13:52:13;;;;;;;8.55;3.30;;;;;;;;;;5133413;27;20023;-67
2023/12/31 13:54:38;;;;;;;10.00;4.40;;;;;;;;;;5133204;28;20066;-66
2023/12/31 13:57:04;;;;;;;12.40;4.53;;;;;;;;;;5133140;28;20027;-67
2023/12/31 13:59:29;;;;;;;14.65;5.60;;;;;;;;;;5132977;28;20098;-68
2023/12/31 14:01:58;;;;;;;9.30;5.15;;;;;;;;;;5133381;28;20027;-67
2023/12/31 14:04:24;;;;;;;5.95;3.67;;;;;;;;;;5133345;27;20099;-67
2023/12/31 14:06:49;;;;;;;7.35;4.32;;;;;;;;;;5132517;27;20561;-67
2023/12/31 14:09:17;;;;;;;14.45;5.88;;;;;;;;;;5133032;28;20113;-67
2023/12/31 14:11:42;;;;;;;10.90;4.90;;;;;;;;;;5133093;27;20098;-68
2023/12/31 14:14:08;;;;;;;6.68;3.70;;;;;;;;;;5133079;27;20044;-67
2023/12/31 14:16:34;;;;;;;11.50;4.72;;;;;;;;;;5133110;27;20126;-66
2023/12/31 14:19:00;;;;;;;8.02;4.47;;;;;;;;;;5132944;27;20066;-67
2023/12/31 14:21:26;;;;;;;11.00;5.03;;;;;;;;;;5117286;27;20031;-67
2023/12/31 14:23:51;;;;;;;10.07;5.28;;;;;;;;;;5119984;28;20365;-67
2023/12/31 14:26:16;;;;;;;7.47;3.90;;;;;;;;;;5132563;28;20547;-67
2023/12/31 14:28:42;;;;;;;8.15;3.90;;;;;;;;;;5132169;27;20542;-67
2023/12/31 14:31:07;;;;;;;9.50;4.72;;;;;;;;;;5132443;28;20080;-67